Search METAR Data

METAR Data for ENAN:

ENAN 241220Z 15010KT CAVOK 04/M04 Q1010